sensor_id;sensor_type;location;lat;lon;timestamp;temperature;humidity
73572;DHT22;61854;48.510;-2.770;2022-10-30T00:00:58;15.30;92.90
73572;DHT22;61854;48.510;-2.770;2022-10-30T00:03:24;15.40;92.90
73572;DHT22;61854;48.510;-2.770;2022-10-30T00:05:50;15.30;92.80
73572;DHT22;61854;48.510;-2.770;2022-10-30T00:08:18;15.40;92.90
73572;DHT22;61854;48.510;-2.770;2022-10-30T00:10:48;15.40;92.80
73572;DHT22;61854;48.510;-2.770;2022-10-30T00:13:14;15.40;92.80
73572;DHT22;61854;48.510;-2.770;2022-10-30T00:15:46;15.40;92.80
73572;DHT22;61854;48.510;-2.770;2022-10-30T00:18:13;15.40;92.70
73572;DHT22;61854;48.510;-2.770;2022-10-30T00:20:39;15.40;92.80
73572;DHT22;61854;48.510;-2.770;2022-10-30T00:23:04;15.30;92.80
73572;DHT22;61854;48.510;-2.770;2022-10-30T00:25:30;15.40;92.80
73572;DHT22;61854;48.510;-2.770;2022-10-30T00:27:56;15.40;92.90
73572;DHT22;61854;48.510;-2.770;2022-10-30T00:30:21;15.40;92.90
73572;DHT22;61854;48.510;-2.770;2022-10-30T00:32:47;15.40;92.90
73572;DHT22;61854;48.510;-2.770;2022-10-30T00:35:12;15.40;92.70
73572;DHT22;61854;48.510;-2.770;2022-10-30T00:37:38;15.40;92.70
73572;DHT22;61854;48.510;-2.770;2022-10-30T00:40:04;15.40;92.70
73572;DHT22;61854;48.510;-2.770;2022-10-30T00:42:31;15.40;92.70
73572;DHT22;61854;48.510;-2.770;2022-10-30T00:44:59;15.40;92.70
73572;DHT22;61854;48.510;-2.770;2022-10-30T00:47:38;15.40;92.80
73572;DHT22;61854;48.510;-2.770;2022-10-30T00:50:20;15.30;92.80
73572;DHT22;61854;48.510;-2.770;2022-10-30T00:52:59;15.30;92.90
73572;DHT22;61854;48.510;-2.770;2022-10-30T00:55:31;15.30;92.90
73572;DHT22;61854;48.510;-2.770;2022-10-30T00:58:00;15.40;93.00
73572;DHT22;61854;48.510;-2.770;2022-10-30T01:00:31;15.30;93.00
73572;DHT22;61854;48.510;-2.770;2022-10-30T01:02:58;15.30;93.00
73572;DHT22;61854;48.510;-2.770;2022-10-30T01:05:26;15.30;93.00
73572;DHT22;61854;48.510;-2.770;2022-10-30T01:07:51;15.30;93.20
73572;DHT22;61854;48.510;-2.770;2022-10-30T01:10:18;15.20;93.30
73572;DHT22;61854;48.510;-2.770;2022-10-30T01:12:44;15.20;93.20
73572;DHT22;61854;48.510;-2.770;2022-10-30T01:15:12;15.20;93.20
73572;DHT22;61854;48.510;-2.770;2022-10-30T01:18:04;15.20;93.30
73572;DHT22;61854;48.510;-2.770;2022-10-30T01:32:14;15.30;92.90
73572;DHT22;61854;48.510;-2.770;2022-10-30T01:34:48;15.30;92.90
73572;DHT22;61854;48.510;-2.770;2022-10-30T01:37:24;15.30;92.90
73572;DHT22;61854;48.510;-2.770;2022-10-30T01:39:52;15.40;92.90
73572;DHT22;61854;48.510;-2.770;2022-10-30T01:42:50;15.40;92.80
73572;DHT22;61854;48.510;-2.770;2022-10-30T01:48:26;15.40;92.80
73572;DHT22;61854;48.510;-2.770;2022-10-30T01:50:56;15.40;92.70
73572;DHT22;61854;48.510;-2.770;2022-10-30T01:59:36;15.40;92.60
73572;DHT22;61854;48.510;-2.770;2022-10-30T02:02:02;15.40;92.50
73572;DHT22;61854;48.510;-2.770;2022-10-30T02:04:28;15.40;92.50
73572;DHT22;61854;48.510;-2.770;2022-10-30T02:06:55;15.40;92.50
73572;DHT22;61854;48.510;-2.770;2022-10-30T02:09:21;15.40;92.40
73572;DHT22;61854;48.510;-2.770;2022-10-30T02:11:47;15.50;92.40
73572;DHT22;61854;48.510;-2.770;2022-10-30T02:14:20;15.50;92.30
73572;DHT22;61854;48.510;-2.770;2022-10-30T02:16:50;15.40;92.30
73572;DHT22;61854;48.510;-2.770;2022-10-30T02:19:17;15.40;92.40
73572;DHT22;61854;48.510;-2.770;2022-10-30T02:21:43;15.50;92.50
73572;DHT22;61854;48.510;-2.770;2022-10-30T02:24:09;15.50;92.50
73572;DHT22;61854;48.510;-2.770;2022-10-30T02:26:37;15.50;92.50
73572;DHT22;61854;48.510;-2.770;2022-10-30T02:29:03;15.50;92.50
73572;DHT22;61854;48.510;-2.770;2022-10-30T02:31:29;15.50;92.90
73572;DHT22;61854;48.510;-2.770;2022-10-30T02:33:54;15.50;92.40
73572;DHT22;61854;48.510;-2.770;2022-10-30T02:36:20;15.50;92.40
73572;DHT22;61854;48.510;-2.770;2022-10-30T02:38:45;15.50;92.40
73572;DHT22;61854;48.510;-2.770;2022-10-30T02:41:11;15.50;92.50
73572;DHT22;61854;48.510;-2.770;2022-10-30T02:43:37;15.50;92.50
73572;DHT22;61854;48.510;-2.770;2022-10-30T02:46:03;15.50;92.60
73572;DHT22;61854;48.510;-2.770;2022-10-30T02:48:30;15.50;92.60
73572;DHT22;61854;48.510;-2.770;2022-10-30T02:51:02;15.50;92.70
73572;DHT22;61854;48.510;-2.770;2022-10-30T02:53:29;15.50;92.80
73572;DHT22;61854;48.510;-2.770;2022-10-30T02:55:55;15.50;92.80
73572;DHT22;61854;48.510;-2.770;2022-10-30T02:58:21;15.50;92.80
73572;DHT22;61854;48.510;-2.770;2022-10-30T03:00:46;15.50;92.80
73572;DHT22;61854;48.510;-2.770;2022-10-30T03:03:15;15.50;92.80
73572;DHT22;61854;48.510;-2.770;2022-10-30T03:05:41;15.50;92.70
73572;DHT22;61854;48.510;-2.770;2022-10-30T03:08:06;15.50;92.80
73572;DHT22;61854;48.510;-2.770;2022-10-30T03:10:32;15.50;92.80
73572;DHT22;61854;48.510;-2.770;2022-10-30T03:12:58;15.50;92.90
73572;DHT22;61854;48.510;-2.770;2022-10-30T03:15:23;15.50;92.80
73572;DHT22;61854;48.510;-2.770;2022-10-30T03:17:51;15.50;92.70
73572;DHT22;61854;48.510;-2.770;2022-10-30T03:20:18;15.50;92.70
73572;DHT22;61854;48.510;-2.770;2022-10-30T03:22:44;15.50;92.60
73572;DHT22;61854;48.510;-2.770;2022-10-30T03:25:09;15.50;92.40
73572;DHT22;61854;48.510;-2.770;2022-10-30T03:27:35;15.50;92.40
73572;DHT22;61854;48.510;-2.770;2022-10-30T03:30:01;15.50;92.50
73572;DHT22;61854;48.510;-2.770;2022-10-30T03:32:26;15.40;92.50
73572;DHT22;61854;48.510;-2.770;2022-10-30T03:34:52;15.40;92.50
73572;DHT22;61854;48.510;-2.770;2022-10-30T03:37:17;15.40;92.40
73572;DHT22;61854;48.510;-2.770;2022-10-30T03:39:43;15.40;92.20
73572;DHT22;61854;48.510;-2.770;2022-10-30T03:42:09;15.40;92.30
73572;DHT22;61854;48.510;-2.770;2022-10-30T03:44:34;15.30;92.40
73572;DHT22;61854;48.510;-2.770;2022-10-30T03:47:00;15.30;92.40
73572;DHT22;61854;48.510;-2.770;2022-10-30T03:49:28;15.30;92.30
73572;DHT22;61854;48.510;-2.770;2022-10-30T03:51:54;15.30;92.20
73572;DHT22;61854;48.510;-2.770;2022-10-30T03:54:19;15.30;92.20
73572;DHT22;61854;48.510;-2.770;2022-10-30T03:56:45;15.30;92.10
73572;DHT22;61854;48.510;-2.770;2022-10-30T03:59:13;15.30;92.10
73572;DHT22;61854;48.510;-2.770;2022-10-30T04:01:39;15.20;91.90
73572;DHT22;61854;48.510;-2.770;2022-10-30T04:04:04;15.20;92.00
73572;DHT22;61854;48.510;-2.770;2022-10-30T04:06:30;15.20;91.80
73572;DHT22;61854;48.510;-2.770;2022-10-30T04:08:55;15.20;91.70
73572;DHT22;61854;48.510;-2.770;2022-10-30T04:11:26;15.20;91.30
73572;DHT22;61854;48.510;-2.770;2022-10-30T04:13:52;15.20;91.30
73572;DHT22;61854;48.510;-2.770;2022-10-30T04:16:17;15.20;91.30
73572;DHT22;61854;48.510;-2.770;2022-10-30T04:18:43;15.20;91.40
73572;DHT22;61854;48.510;-2.770;2022-10-30T04:21:08;15.20;91.20
73572;DHT22;61854;48.510;-2.770;2022-10-30T04:23:34;15.10;91.10
73572;DHT22;61854;48.510;-2.770;2022-10-30T04:26:00;15.10;91.10
73572;DHT22;61854;48.510;-2.770;2022-10-30T04:28:26;15.10;91.10
73572;DHT22;61854;48.510;-2.770;2022-10-30T04:30:52;15.00;91.20
73572;DHT22;61854;48.510;-2.770;2022-10-30T04:33:17;15.00;91.60
73572;DHT22;61854;48.510;-2.770;2022-10-30T04:35:43;14.90;91.80
73572;DHT22;61854;48.510;-2.770;2022-10-30T04:38:13;14.90;92.00
73572;DHT22;61854;48.510;-2.770;2022-10-30T04:40:40;14.80;92.30
73572;DHT22;61854;48.510;-2.770;2022-10-30T04:43:13;14.70;92.40
73572;DHT22;61854;48.510;-2.770;2022-10-30T04:45:40;14.70;92.40
73572;DHT22;61854;48.510;-2.770;2022-10-30T04:48:11;14.60;92.60
73572;DHT22;61854;48.510;-2.770;2022-10-30T04:50:37;14.60;92.60
73572;DHT22;61854;48.510;-2.770;2022-10-30T04:53:06;14.60;92.50
73572;DHT22;61854;48.510;-2.770;2022-10-30T04:55:32;14.60;92.60
73572;DHT22;61854;48.510;-2.770;2022-10-30T04:57:59;14.60;92.80
73572;DHT22;61854;48.510;-2.770;2022-10-30T05:00:25;14.60;92.50
73572;DHT22;61854;48.510;-2.770;2022-10-30T05:02:51;14.60;92.70
73572;DHT22;61854;48.510;-2.770;2022-10-30T05:05:17;14.60;92.90
73572;DHT22;61854;48.510;-2.770;2022-10-30T05:07:45;14.60;92.90
73572;DHT22;61854;48.510;-2.770;2022-10-30T05:10:12;14.60;93.00
73572;DHT22;61854;48.510;-2.770;2022-10-30T05:12:43;14.60;93.00
73572;DHT22;61854;48.510;-2.770;2022-10-30T05:15:10;14.50;92.90
73572;DHT22;61854;48.510;-2.770;2022-10-30T05:17:36;14.50;92.90
73572;DHT22;61854;48.510;-2.770;2022-10-30T05:20:03;14.50;92.90
73572;DHT22;61854;48.510;-2.770;2022-10-30T05:22:29;14.60;93.00
73572;DHT22;61854;48.510;-2.770;2022-10-30T05:24:54;14.50;92.90
73572;DHT22;61854;48.510;-2.770;2022-10-30T05:27:20;14.60;92.80
73572;DHT22;61854;48.510;-2.770;2022-10-30T05:29:46;14.60;92.90
73572;DHT22;61854;48.510;-2.770;2022-10-30T05:32:11;14.60;92.90
73572;DHT22;61854;48.510;-2.770;2022-10-30T05:34:37;14.60;92.90
73572;DHT22;61854;48.510;-2.770;2022-10-30T05:37:05;14.60;93.00
73572;DHT22;61854;48.510;-2.770;2022-10-30T05:39:31;14.50;93.00
73572;DHT22;61854;48.510;-2.770;2022-10-30T05:41:56;14.60;93.10
73572;DHT22;61854;48.510;-2.770;2022-10-30T05:44:22;14.60;93.00
73572;DHT22;61854;48.510;-2.770;2022-10-30T05:46:48;14.60;93.00
73572;DHT22;61854;48.510;-2.770;2022-10-30T05:49:13;14.60;93.10
73572;DHT22;61854;48.510;-2.770;2022-10-30T05:51:39;14.60;93.10
73572;DHT22;61854;48.510;-2.770;2022-10-30T05:54:04;14.60;93.10
73572;DHT22;61854;48.510;-2.770;2022-10-30T05:56:30;14.60;93.20
73572;DHT22;61854;48.510;-2.770;2022-10-30T05:58:56;14.60;93.20
73572;DHT22;61854;48.510;-2.770;2022-10-30T06:01:21;14.60;93.20
73572;DHT22;61854;48.510;-2.770;2022-10-30T06:03:47;14.60;93.20
73572;DHT22;61854;48.510;-2.770;2022-10-30T06:06:13;14.60;93.30
73572;DHT22;61854;48.510;-2.770;2022-10-30T06:08:38;14.60;93.30
73572;DHT22;61854;48.510;-2.770;2022-10-30T06:11:04;14.60;93.20
73572;DHT22;61854;48.510;-2.770;2022-10-30T06:13:29;14.60;93.30
73572;DHT22;61854;48.510;-2.770;2022-10-30T06:15:55;14.50;93.30
73572;DHT22;61854;48.510;-2.770;2022-10-30T06:18:21;14.60;93.30
73572;DHT22;61854;48.510;-2.770;2022-10-30T06:20:50;14.50;93.20
73572;DHT22;61854;48.510;-2.770;2022-10-30T06:23:16;14.50;93.20
73572;DHT22;61854;48.510;-2.770;2022-10-30T06:25:41;14.50;93.20
73572;DHT22;61854;48.510;-2.770;2022-10-30T06:28:09;14.50;93.30
73572;DHT22;61854;48.510;-2.770;2022-10-30T06:30:34;14.40;93.30
73572;DHT22;61854;48.510;-2.770;2022-10-30T06:33:02;14.40;93.30
73572;DHT22;61854;48.510;-2.770;2022-10-30T06:35:28;14.40;93.40
73572;DHT22;61854;48.510;-2.770;2022-10-30T06:37:58;14.40;93.50
73572;DHT22;61854;48.510;-2.770;2022-10-30T06:40:27;14.40;93.50
73572;DHT22;61854;48.510;-2.770;2022-10-30T06:42:54;14.40;93.50
73572;DHT22;61854;48.510;-2.770;2022-10-30T06:45:21;14.40;93.40
73572;DHT22;61854;48.510;-2.770;2022-10-30T06:47:47;14.40;93.40
73572;DHT22;61854;48.510;-2.770;2022-10-30T06:50:16;14.40;93.40
73572;DHT22;61854;48.510;-2.770;2022-10-30T06:52:42;14.40;93.50
73572;DHT22;61854;48.510;-2.770;2022-10-30T06:55:08;14.40;93.50
73572;DHT22;61854;48.510;-2.770;2022-10-30T06:57:34;14.40;93.60
73572;DHT22;61854;48.510;-2.770;2022-10-30T07:00:00;14.40;93.60
73572;DHT22;61854;48.510;-2.770;2022-10-30T07:02:26;14.40;93.70
73572;DHT22;61854;48.510;-2.770;2022-10-30T07:04:52;14.30;93.70
73572;DHT22;61854;48.510;-2.770;2022-10-30T07:07:17;14.40;94.10
73572;DHT22;61854;48.510;-2.770;2022-10-30T07:09:43;14.40;93.50
73572;DHT22;61854;48.510;-2.770;2022-10-30T07:12:10;14.40;93.20
73572;DHT22;61854;48.510;-2.770;2022-10-30T07:14:37;14.40;93.40
73572;DHT22;61854;48.510;-2.770;2022-10-30T07:17:06;14.50;92.80
73572;DHT22;61854;48.510;-2.770;2022-10-30T07:19:31;14.40;92.70
73572;DHT22;61854;48.510;-2.770;2022-10-30T07:21:57;14.40;92.60
73572;DHT22;61854;48.510;-2.770;2022-10-30T07:24:25;14.40;93.00
73572;DHT22;61854;48.510;-2.770;2022-10-30T07:26:51;14.40;92.60
73572;DHT22;61854;48.510;-2.770;2022-10-30T07:29:16;14.40;92.60
73572;DHT22;61854;48.510;-2.770;2022-10-30T07:31:45;14.50;92.60
73572;DHT22;61854;48.510;-2.770;2022-10-30T07:34:11;14.50;92.50
73572;DHT22;61854;48.510;-2.770;2022-10-30T07:36:40;14.50;92.50
73572;DHT22;61854;48.510;-2.770;2022-10-30T07:39:05;14.50;92.50
73572;DHT22;61854;48.510;-2.770;2022-10-30T07:41:31;14.50;92.40
73572;DHT22;61854;48.510;-2.770;2022-10-30T07:43:56;14.50;92.40
73572;DHT22;61854;48.510;-2.770;2022-10-30T07:46:22;14.50;92.40
73572;DHT22;61854;48.510;-2.770;2022-10-30T07:48:47;14.50;92.40
73572;DHT22;61854;48.510;-2.770;2022-10-30T07:51:13;14.50;92.40
73572;DHT22;61854;48.510;-2.770;2022-10-30T07:53:39;14.50;92.20
73572;DHT22;61854;48.510;-2.770;2022-10-30T07:56:05;14.60;92.10
73572;DHT22;61854;48.510;-2.770;2022-10-30T07:58:33;14.60;91.80
73572;DHT22;61854;48.510;-2.770;2022-10-30T08:00:59;14.60;91.70
73572;DHT22;61854;48.510;-2.770;2022-10-30T08:03:27;14.60;91.80
73572;DHT22;61854;48.510;-2.770;2022-10-30T08:05:53;14.60;91.60
73572;DHT22;61854;48.510;-2.770;2022-10-30T08:08:19;14.60;91.50
73572;DHT22;61854;48.510;-2.770;2022-10-30T08:10:44;14.60;91.40
73572;DHT22;61854;48.510;-2.770;2022-10-30T08:13:10;14.60;91.40
73572;DHT22;61854;48.510;-2.770;2022-10-30T08:15:35;14.60;91.50
73572;DHT22;61854;48.510;-2.770;2022-10-30T08:18:03;14.60;91.70
73572;DHT22;61854;48.510;-2.770;2022-10-30T08:20:29;14.60;91.60
73572;DHT22;61854;48.510;-2.770;2022-10-30T08:22:56;14.60;91.80
73572;DHT22;61854;48.510;-2.770;2022-10-30T08:25:24;14.60;91.80
73572;DHT22;61854;48.510;-2.770;2022-10-30T08:27:56;14.60;91.90
73572;DHT22;61854;48.510;-2.770;2022-10-30T08:30:24;14.60;91.90
73572;DHT22;61854;48.510;-2.770;2022-10-30T08:32:50;14.60;91.90
73572;DHT22;61854;48.510;-2.770;2022-10-30T08:35:18;14.60;91.80
73572;DHT22;61854;48.510;-2.770;2022-10-30T08:37:44;14.70;91.80
73572;DHT22;61854;48.510;-2.770;2022-10-30T08:40:10;14.70;91.80
73572;DHT22;61854;48.510;-2.770;2022-10-30T08:42:35;14.70;91.80
73572;DHT22;61854;48.510;-2.770;2022-10-30T08:45:01;14.80;91.80
73572;DHT22;61854;48.510;-2.770;2022-10-30T08:47:27;14.90;91.70
73572;DHT22;61854;48.510;-2.770;2022-10-30T08:49:52;14.90;91.60
73572;DHT22;61854;48.510;-2.770;2022-10-30T08:52:21;14.90;91.40
73572;DHT22;61854;48.510;-2.770;2022-10-30T08:54:46;15.00;91.50
73572;DHT22;61854;48.510;-2.770;2022-10-30T08:57:12;15.00;91.60
73572;DHT22;61854;48.510;-2.770;2022-10-30T08:59:37;15.10;91.60
73572;DHT22;61854;48.510;-2.770;2022-10-30T09:02:07;15.10;91.30
73572;DHT22;61854;48.510;-2.770;2022-10-30T09:04:32;15.10;91.30
73572;DHT22;61854;48.510;-2.770;2022-10-30T09:07:00;15.10;91.30
73572;DHT22;61854;48.510;-2.770;2022-10-30T09:09:28;15.20;91.40
73572;DHT22;61854;48.510;-2.770;2022-10-30T09:11:54;15.20;91.40
73572;DHT22;61854;48.510;-2.770;2022-10-30T09:14:19;15.20;91.30
73572;DHT22;61854;48.510;-2.770;2022-10-30T09:16:45;15.20;91.20
73572;DHT22;61854;48.510;-2.770;2022-10-30T09:19:11;15.20;91.20
73572;DHT22;61854;48.510;-2.770;2022-10-30T09:21:36;15.30;91.20
73572;DHT22;61854;48.510;-2.770;2022-10-30T09:24:02;15.30;91.10
73572;DHT22;61854;48.510;-2.770;2022-10-30T09:26:28;15.40;91.00
73572;DHT22;61854;48.510;-2.770;2022-10-30T09:28:54;15.40;90.90
73572;DHT22;61854;48.510;-2.770;2022-10-30T09:31:19;15.30;90.90
73572;DHT22;61854;48.510;-2.770;2022-10-30T09:33:48;15.40;90.80
73572;DHT22;61854;48.510;-2.770;2022-10-30T09:36:17;15.40;90.70
73572;DHT22;61854;48.510;-2.770;2022-10-30T09:38:42;15.40;90.60
73572;DHT22;61854;48.510;-2.770;2022-10-30T09:47:12;15.50;90.60
73572;DHT22;61854;48.510;-2.770;2022-10-30T10:01:04;15.40;90.60
73572;DHT22;61854;48.510;-2.770;2022-10-30T10:06:25;15.40;90.70
73572;DHT22;61854;48.510;-2.770;2022-10-30T10:09:00;15.40;90.90
73572;DHT22;61854;48.510;-2.770;2022-10-30T10:11:40;15.40;90.70
73572;DHT22;61854;48.510;-2.770;2022-10-30T10:16:50;15.40;90.70
73572;DHT22;61854;48.510;-2.770;2022-10-30T10:19:22;15.50;90.80
73572;DHT22;61854;48.510;-2.770;2022-10-30T10:21:54;15.50;90.90
73572;DHT22;61854;48.510;-2.770;2022-10-30T10:24:25;15.60;90.80
73572;DHT22;61854;48.510;-2.770;2022-10-30T10:27:07;15.70;90.80
73572;DHT22;61854;48.510;-2.770;2022-10-30T10:32:21;16.10;89.70
73572;DHT22;61854;48.510;-2.770;2022-10-30T10:43:24;16.80;85.60
73572;DHT22;61854;48.510;-2.770;2022-10-30T10:48:50;17.00;84.70
73572;DHT22;61854;48.510;-2.770;2022-10-30T10:51:41;17.00;84.90
73572;DHT22;61854;48.510;-2.770;2022-10-30T10:54:18;16.90;84.80
73572;DHT22;61854;48.510;-2.770;2022-10-30T10:56:48;16.90;84.80
73572;DHT22;61854;48.510;-2.770;2022-10-30T11:01:43;16.60;84.80
73572;DHT22;61854;48.510;-2.770;2022-10-30T11:04:30;16.50;86.30
73572;DHT22;61854;48.510;-2.770;2022-10-30T11:06:57;16.40;87.30
73572;DHT22;61854;48.510;-2.770;2022-10-30T11:09:23;16.30;86.40
73572;DHT22;61854;48.510;-2.770;2022-10-30T11:11:53;16.40;87.00
73572;DHT22;61854;48.510;-2.770;2022-10-30T11:14:22;16.50;87.00
73572;DHT22;61854;48.510;-2.770;2022-10-30T11:19:47;16.70;84.80
73572;DHT22;61854;48.510;-2.770;2022-10-30T11:25:20;16.70;84.50
73572;DHT22;61854;48.510;-2.770;2022-10-30T11:27:48;16.80;84.40
73572;DHT22;61854;48.510;-2.770;2022-10-30T11:30:23;16.90;83.80
73572;DHT22;61854;48.510;-2.770;2022-10-30T11:32:49;16.90;83.60
73572;DHT22;61854;48.510;-2.770;2022-10-30T11:35:17;17.00;83.60
73572;DHT22;61854;48.510;-2.770;2022-10-30T11:37:46;17.00;83.90
73572;DHT22;61854;48.510;-2.770;2022-10-30T11:42:45;16.80;87.00
73572;DHT22;61854;48.510;-2.770;2022-10-30T11:45:23;16.50;89.80
73572;DHT22;61854;48.510;-2.770;2022-10-30T11:47:50;16.30;90.80
73572;DHT22;61854;48.510;-2.770;2022-10-30T11:50:22;16.20;91.50
73572;DHT22;61854;48.510;-2.770;2022-10-30T11:52:51;16.00;91.50
73572;DHT22;61854;48.510;-2.770;2022-10-30T11:55:34;15.90;92.00
73572;DHT22;61854;48.510;-2.770;2022-10-30T11:58:00;15.80;92.30
73572;DHT22;61854;48.510;-2.770;2022-10-30T12:00:30;15.80;92.30
73572;DHT22;61854;48.510;-2.770;2022-10-30T12:02:58;15.90;91.70
73572;DHT22;61854;48.510;-2.770;2022-10-30T12:05:39;16.00;91.70
73572;DHT22;61854;48.510;-2.770;2022-10-30T12:10:53;16.20;86.50
73572;DHT22;61854;48.510;-2.770;2022-10-30T12:13:22;16.30;84.50
73572;DHT22;61854;48.510;-2.770;2022-10-30T12:16:17;16.30;82.60
73572;DHT22;61854;48.510;-2.770;2022-10-30T12:19:10;16.30;82.60
73572;DHT22;61854;48.510;-2.770;2022-10-30T12:21:46;16.40;80.50
73572;DHT22;61854;48.510;-2.770;2022-10-30T12:24:17;16.50;81.30
73572;DHT22;61854;48.510;-2.770;2022-10-30T12:26:47;16.60;80.10
73572;DHT22;61854;48.510;-2.770;2022-10-30T12:29:17;16.70;80.60
73572;DHT22;61854;48.510;-2.770;2022-10-30T12:31:59;16.80;78.90
73572;DHT22;61854;48.510;-2.770;2022-10-30T12:37:14;17.00;77.60
73572;DHT22;61854;48.510;-2.770;2022-10-30T12:42:19;17.30;77.00
73572;DHT22;61854;48.510;-2.770;2022-10-30T12:47:28;17.60;74.40
73572;DHT22;61854;48.510;-2.770;2022-10-30T12:50:24;17.80;73.30
73572;DHT22;61854;48.510;-2.770;2022-10-30T12:53:12;18.00;72.40
73572;DHT22;61854;48.510;-2.770;2022-10-30T12:55:49;18.10;71.70
73572;DHT22;61854;48.510;-2.770;2022-10-30T13:01:37;18.20;71.40
73572;DHT22;61854;48.510;-2.770;2022-10-30T13:09:26;18.40;70.50
73572;DHT22;61854;48.510;-2.770;2022-10-30T13:12:11;18.40;70.60
73572;DHT22;61854;48.510;-2.770;2022-10-30T13:15:03;18.40;70.00
73572;DHT22;61854;48.510;-2.770;2022-10-30T13:17:30;18.40;70.30
73572;DHT22;61854;48.510;-2.770;2022-10-30T13:19:56;18.40;70.30
73572;DHT22;61854;48.510;-2.770;2022-10-30T13:39:50;20.20;64.60
73572;DHT22;61854;48.510;-2.770;2022-10-30T13:50:25;20.30;63.20
73572;DHT22;61854;48.510;-2.770;2022-10-30T13:53:00;19.80;64.90
73572;DHT22;61854;48.510;-2.770;2022-10-30T13:55:29;19.80;64.40
73572;DHT22;61854;48.510;-2.770;2022-10-30T13:58:03;20.10;62.70
73572;DHT22;61854;48.510;-2.770;2022-10-30T14:01:05;20.40;61.10
73572;DHT22;61854;48.510;-2.770;2022-10-30T14:06:38;20.90;60.00
73572;DHT22;61854;48.510;-2.770;2022-10-30T14:09:27;21.10;59.50
73572;DHT22;61854;48.510;-2.770;2022-10-30T14:11:54;21.60;58.80
73572;DHT22;61854;48.510;-2.770;2022-10-30T14:14:29;22.10;57.80
73572;DHT22;61854;48.510;-2.770;2022-10-30T14:17:13;22.50;57.10
73572;DHT22;61854;48.510;-2.770;2022-10-30T14:22:30;23.00;55.50
73572;DHT22;61854;48.510;-2.770;2022-10-30T14:24:56;23.30;54.80
73572;DHT22;61854;48.510;-2.770;2022-10-30T14:27:32;23.40;54.50
73572;DHT22;61854;48.510;-2.770;2022-10-30T14:29:59;23.00;53.50
73572;DHT22;61854;48.510;-2.770;2022-10-30T14:39:49;21.40;56.30
73572;DHT22;61854;48.510;-2.770;2022-10-30T14:42:42;21.50;55.30
73572;DHT22;61854;48.510;-2.770;2022-10-30T14:56:10;20.80;56.50
73572;DHT22;61854;48.510;-2.770;2022-10-30T15:07:30;21.30;56.40
73572;DHT22;61854;48.510;-2.770;2022-10-30T15:10:03;21.50;56.20
73572;DHT22;61854;48.510;-2.770;2022-10-30T15:15:10;21.70;55.70
73572;DHT22;61854;48.510;-2.770;2022-10-30T15:17:39;21.90;55.40
73572;DHT22;61854;48.510;-2.770;2022-10-30T15:20:22;22.40;54.30
73572;DHT22;61854;48.510;-2.770;2022-10-30T15:23:15;22.90;53.40
73572;DHT22;61854;48.510;-2.770;2022-10-30T15:25:49;23.10;52.10
73572;DHT22;61854;48.510;-2.770;2022-10-30T15:28:26;23.10;52.00
73572;DHT22;61854;48.510;-2.770;2022-10-30T15:31:12;23.20;51.40
73572;DHT22;61854;48.510;-2.770;2022-10-30T15:33:45;23.00;51.40
73572;DHT22;61854;48.510;-2.770;2022-10-30T15:36:25;22.50;52.70
73572;DHT22;61854;48.510;-2.770;2022-10-30T15:39:14;21.60;54.60
73572;DHT22;61854;48.510;-2.770;2022-10-30T15:41:52;20.90;56.90
73572;DHT22;61854;48.510;-2.770;2022-10-30T15:44:34;20.50;58.60
73572;DHT22;61854;48.510;-2.770;2022-10-30T15:47:02;20.40;59.40
73572;DHT22;61854;48.510;-2.770;2022-10-30T15:51:53;20.30;59.60
73572;DHT22;61854;48.510;-2.770;2022-10-30T15:54:20;20.10;60.00
73572;DHT22;61854;48.510;-2.770;2022-10-30T15:56:53;19.80;60.90
73572;DHT22;61854;48.510;-2.770;2022-10-30T15:59:25;19.60;61.80
73572;DHT22;61854;48.510;-2.770;2022-10-30T16:01:53;19.30;62.50
73572;DHT22;61854;48.510;-2.770;2022-10-30T16:04:23;19.00;64.00
73572;DHT22;61854;48.510;-2.770;2022-10-30T16:07:14;18.60;65.60
73572;DHT22;61854;48.510;-2.770;2022-10-30T16:09:59;18.20;67.30
73572;DHT22;61854;48.510;-2.770;2022-10-30T16:12:28;17.90;68.60
73572;DHT22;61854;48.510;-2.770;2022-10-30T16:14:55;17.70;69.70
73572;DHT22;61854;48.510;-2.770;2022-10-30T16:17:25;17.60;69.90
73572;DHT22;61854;48.510;-2.770;2022-10-30T16:19:53;17.40;70.50
73572;DHT22;61854;48.510;-2.770;2022-10-30T16:22:26;17.30;71.00
73572;DHT22;61854;48.510;-2.770;2022-10-30T16:24:53;17.20;71.30
73572;DHT22;61854;48.510;-2.770;2022-10-30T16:27:21;17.10;71.30
73572;DHT22;61854;48.510;-2.770;2022-10-30T16:29:54;17.00;71.60
73572;DHT22;61854;48.510;-2.770;2022-10-30T16:32:29;16.90;71.90
73572;DHT22;61854;48.510;-2.770;2022-10-30T16:34:59;16.90;71.90
73572;DHT22;61854;48.510;-2.770;2022-10-30T16:40:00;16.80;72.50
73572;DHT22;61854;48.510;-2.770;2022-10-30T16:42:30;16.70;74.00
73572;DHT22;61854;48.510;-2.770;2022-10-30T16:48:06;16.50;74.00
73572;DHT22;61854;48.510;-2.770;2022-10-30T16:50:34;16.50;74.70
73572;DHT22;61854;48.510;-2.770;2022-10-30T16:55:45;16.30;75.50
73572;DHT22;61854;48.510;-2.770;2022-10-30T16:58:12;16.20;75.90
73572;DHT22;61854;48.510;-2.770;2022-10-30T17:00:41;16.10;76.00
73572;DHT22;61854;48.510;-2.770;2022-10-30T17:03:12;16.00;76.40
73572;DHT22;61854;48.510;-2.770;2022-10-30T17:05:39;15.90;76.60
73572;DHT22;61854;48.510;-2.770;2022-10-30T17:08:34;15.90;76.70
73572;DHT22;61854;48.510;-2.770;2022-10-30T17:11:04;15.80;77.10
73572;DHT22;61854;48.510;-2.770;2022-10-30T17:16:22;15.70;77.70
73572;DHT22;61854;48.510;-2.770;2022-10-30T17:18:49;15.70;77.80
73572;DHT22;61854;48.510;-2.770;2022-10-30T17:21:24;15.60;78.10
73572;DHT22;61854;48.510;-2.770;2022-10-30T17:23:55;15.60;78.30
73572;DHT22;61854;48.510;-2.770;2022-10-30T17:26:22;15.50;78.70
73572;DHT22;61854;48.510;-2.770;2022-10-30T17:28:48;15.50;78.70
73572;DHT22;61854;48.510;-2.770;2022-10-30T17:33:43;15.30;79.40
73572;DHT22;61854;48.510;-2.770;2022-10-30T17:36:09;15.30;79.70
73572;DHT22;61854;48.510;-2.770;2022-10-30T17:38:35;15.30;79.80
73572;DHT22;61854;48.510;-2.770;2022-10-30T17:41:04;15.20;79.80
73572;DHT22;61854;48.510;-2.770;2022-10-30T17:43:34;15.30;80.20
73572;DHT22;61854;48.510;-2.770;2022-10-30T17:46:11;15.20;80.40
73572;DHT22;61854;48.510;-2.770;2022-10-30T17:48:37;15.20;80.70
73572;DHT22;61854;48.510;-2.770;2022-10-30T17:51:02;15.10;80.90
73572;DHT22;61854;48.510;-2.770;2022-10-30T17:53:28;15.10;81.10
73572;DHT22;61854;48.510;-2.770;2022-10-30T17:56:01;15.00;81.30
73572;DHT22;61854;48.510;-2.770;2022-10-30T17:58:28;15.00;81.60
73572;DHT22;61854;48.510;-2.770;2022-10-30T18:00:56;15.00;81.90
73572;DHT22;61854;48.510;-2.770;2022-10-30T18:03:21;15.00;82.10
73572;DHT22;61854;48.510;-2.770;2022-10-30T18:05:47;14.90;82.20
73572;DHT22;61854;48.510;-2.770;2022-10-30T18:08:13;14.90;82.60
73572;DHT22;61854;48.510;-2.770;2022-10-30T18:10:39;14.90;82.90
73572;DHT22;61854;48.510;-2.770;2022-10-30T18:13:04;14.90;83.00